sensor_id;sensor_type;location;lat;lon;timestamp;P1;durP1;ratioP1;P2;durP2;ratioP2
84676;SDS011;74901;55.024;73.254;2023-12-29T00:01:31;13.35;;;5.00;;
84676;SDS011;74901;55.024;73.254;2023-12-29T00:04:02;7.70;;;3.13;;
84676;SDS011;74901;55.024;73.254;2023-12-29T00:06:31;9.32;;;3.45;;
84676;SDS011;74901;55.024;73.254;2023-12-29T00:09:00;7.05;;;3.00;;
84676;SDS011;74901;55.024;73.254;2023-12-29T00:11:28;7.80;;;3.13;;
84676;SDS011;74901;55.024;73.254;2023-12-29T00:13:57;11.35;;;3.72;;
84676;SDS011;74901;55.024;73.254;2023-12-29T00:16:27;5.78;;;2.30;;
84676;SDS011;74901;55.024;73.254;2023-12-29T00:18:55;9.75;;;2.78;;
84676;SDS011;74901;55.024;73.254;2023-12-29T00:21:26;8.32;;;2.83;;
84676;SDS011;74901;55.024;73.254;2023-12-29T00:23:54;15.15;;;4.13;;
84676;SDS011;74901;55.024;73.254;2023-12-29T00:26:23;11.38;;;3.15;;
84676;SDS011;74901;55.024;73.254;2023-12-29T00:28:57;7.63;;;3.22;;
84676;SDS011;74901;55.024;73.254;2023-12-29T00:31:26;7.65;;;2.60;;
84676;SDS011;74901;55.024;73.254;2023-12-29T00:33:56;7.20;;;2.78;;
84676;SDS011;74901;55.024;73.254;2023-12-29T00:36:27;6.45;;;2.05;;
84676;SDS011;74901;55.024;73.254;2023-12-29T00:38:56;6.15;;;2.20;;
84676;SDS011;74901;55.024;73.254;2023-12-29T00:41:24;9.60;;;3.17;;
84676;SDS011;74901;55.024;73.254;2023-12-29T00:43:53;9.02;;;2.50;;
84676;SDS011;74901;55.024;73.254;2023-12-29T00:46:22;8.05;;;2.80;;
84676;SDS011;74901;55.024;73.254;2023-12-29T00:48:51;8.25;;;2.80;;
84676;SDS011;74901;55.024;73.254;2023-12-29T00:51:19;14.52;;;4.25;;
84676;SDS011;74901;55.024;73.254;2023-12-29T00:53:50;5.18;;;1.70;;
84676;SDS011;74901;55.024;73.254;2023-12-29T00:56:18;7.70;;;2.83;;
84676;SDS011;74901;55.024;73.254;2023-12-29T00:58:47;6.18;;;2.60;;
84676;SDS011;74901;55.024;73.254;2023-12-29T01:01:16;7.50;;;2.72;;
84676;SDS011;74901;55.024;73.254;2023-12-29T01:03:46;7.22;;;2.05;;
84676;SDS011;74901;55.024;73.254;2023-12-29T01:06:20;6.78;;;2.40;;
84676;SDS011;74901;55.024;73.254;2023-12-29T01:08:52;7.53;;;1.85;;
84676;SDS011;74901;55.024;73.254;2023-12-29T01:11:21;7.05;;;2.38;;
84676;SDS011;74901;55.024;73.254;2023-12-29T01:13:50;5.35;;;1.70;;
84676;SDS011;74901;55.024;73.254;2023-12-29T01:16:19;7.85;;;2.47;;
84676;SDS011;74901;55.024;73.254;2023-12-29T01:18:49;9.63;;;2.25;;
84676;SDS011;74901;55.024;73.254;2023-12-29T01:21:18;9.95;;;2.95;;
84676;SDS011;74901;55.024;73.254;2023-12-29T01:23:47;5.65;;;1.92;;
84676;SDS011;74901;55.024;73.254;2023-12-29T01:26:17;4.55;;;2.00;;
84676;SDS011;74901;55.024;73.254;2023-12-29T01:28:46;5.82;;;1.95;;
84676;SDS011;74901;55.024;73.254;2023-12-29T01:31:15;4.80;;;1.75;;
84676;SDS011;74901;55.024;73.254;2023-12-29T01:33:45;7.05;;;2.20;;
84676;SDS011;74901;55.024;73.254;2023-12-29T01:36:17;3.65;;;1.30;;
84676;SDS011;74901;55.024;73.254;2023-12-29T01:38:46;3.60;;;1.42;;
84676;SDS011;74901;55.024;73.254;2023-12-29T01:41:17;4.18;;;1.67;;
84676;SDS011;74901;55.024;73.254;2023-12-29T01:46:48;6.53;;;2.30;;
84676;SDS011;74901;55.024;73.254;2023-12-29T01:49:19;5.28;;;1.98;;
84676;SDS011;74901;55.024;73.254;2023-12-29T01:51:53;6.70;;;2.10;;
84676;SDS011;74901;55.024;73.254;2023-12-29T01:54:30;7.32;;;2.42;;
84676;SDS011;74901;55.024;73.254;2023-12-29T01:57:11;6.68;;;2.20;;
84676;SDS011;74901;55.024;73.254;2023-12-29T01:59:41;7.60;;;2.40;;
84676;SDS011;74901;55.024;73.254;2023-12-29T02:02:11;4.60;;;1.63;;
84676;SDS011;74901;55.024;73.254;2023-12-29T02:04:51;8.57;;;2.13;;
84676;SDS011;74901;55.024;73.254;2023-12-29T02:07:19;4.82;;;1.48;;
84676;SDS011;74901;55.024;73.254;2023-12-29T02:09:49;4.95;;;2.10;;
84676;SDS011;74901;55.024;73.254;2023-12-29T02:12:20;7.97;;;2.53;;
84676;SDS011;74901;55.024;73.254;2023-12-29T02:14:49;6.93;;;2.50;;
84676;SDS011;74901;55.024;73.254;2023-12-29T02:17:19;6.10;;;2.20;;
84676;SDS011;74901;55.024;73.254;2023-12-29T02:19:54;3.70;;;1.30;;
84676;SDS011;74901;55.024;73.254;2023-12-29T02:22:24;6.80;;;2.30;;
84676;SDS011;74901;55.024;73.254;2023-12-29T02:24:54;5.55;;;2.08;;
84676;SDS011;74901;55.024;73.254;2023-12-29T02:27:26;14.93;;;2.35;;
84676;SDS011;74901;55.024;73.254;2023-12-29T02:30:06;6.88;;;2.03;;
84676;SDS011;74901;55.024;73.254;2023-12-29T02:32:39;6.05;;;2.20;;
84676;SDS011;74901;55.024;73.254;2023-12-29T02:35:11;6.10;;;1.98;;
84676;SDS011;74901;55.024;73.254;2023-12-29T02:37:42;5.50;;;2.15;;
84676;SDS011;74901;55.024;73.254;2023-12-29T02:40:14;4.82;;;1.45;;
84676;SDS011;74901;55.024;73.254;2023-12-29T02:42:46;5.75;;;1.98;;
84676;SDS011;74901;55.024;73.254;2023-12-29T02:45:20;8.05;;;2.25;;
84676;SDS011;74901;55.024;73.254;2023-12-29T02:47:50;8.75;;;1.48;;
84676;SDS011;74901;55.024;73.254;2023-12-29T02:50:24;8.90;;;2.30;;
84676;SDS011;74901;55.024;73.254;2023-12-29T02:52:57;5.95;;;2.10;;
84676;SDS011;74901;55.024;73.254;2023-12-29T02:55:36;3.72;;;1.35;;
84676;SDS011;74901;55.024;73.254;2023-12-29T02:58:08;5.55;;;2.08;;
84676;SDS011;74901;55.024;73.254;2023-12-29T03:00:39;6.18;;;2.03;;
84676;SDS011;74901;55.024;73.254;2023-12-29T03:03:10;3.80;;;1.35;;
84676;SDS011;74901;55.024;73.254;2023-12-29T03:05:40;7.55;;;2.22;;
84676;SDS011;74901;55.024;73.254;2023-12-29T03:08:10;6.03;;;1.52;;
84676;SDS011;74901;55.024;73.254;2023-12-29T03:10:55;3.95;;;1.27;;
84676;SDS011;74901;55.024;73.254;2023-12-29T03:13:26;4.75;;;1.65;;
84676;SDS011;74901;55.024;73.254;2023-12-29T03:15:57;3.83;;;1.55;;
84676;SDS011;74901;55.024;73.254;2023-12-29T03:18:27;7.07;;;2.10;;
84676;SDS011;74901;55.024;73.254;2023-12-29T03:20:56;6.50;;;1.65;;
84676;SDS011;74901;55.024;73.254;2023-12-29T03:23:25;5.38;;;1.90;;
84676;SDS011;74901;55.024;73.254;2023-12-29T03:26:02;4.70;;;1.23;;
84676;SDS011;74901;55.024;73.254;2023-12-29T03:28:30;4.45;;;1.58;;
84676;SDS011;74901;55.024;73.254;2023-12-29T03:30:59;9.32;;;2.55;;
84676;SDS011;74901;55.024;73.254;2023-12-29T03:33:28;4.70;;;1.65;;
84676;SDS011;74901;55.024;73.254;2023-12-29T03:35:58;5.40;;;1.77;;
84676;SDS011;74901;55.024;73.254;2023-12-29T03:38:27;5.55;;;2.20;;
84676;SDS011;74901;55.024;73.254;2023-12-29T03:40:56;5.25;;;1.90;;
84676;SDS011;74901;55.024;73.254;2023-12-29T03:43:47;3.75;;;1.50;;
84676;SDS011;74901;55.024;73.254;2023-12-29T03:46:17;13.57;;;2.80;;
84676;SDS011;74901;55.024;73.254;2023-12-29T03:48:46;4.30;;;1.63;;
84676;SDS011;74901;55.024;73.254;2023-12-29T03:51:15;5.95;;;1.95;;
84676;SDS011;74901;55.024;73.254;2023-12-29T03:53:45;10.15;;;2.85;;
84676;SDS011;74901;55.024;73.254;2023-12-29T03:56:15;5.65;;;2.10;;
84676;SDS011;74901;55.024;73.254;2023-12-29T03:58:52;6.22;;;2.05;;
84676;SDS011;74901;55.024;73.254;2023-12-29T04:01:21;6.20;;;1.75;;
84676;SDS011;74901;55.024;73.254;2023-12-29T04:03:51;7.55;;;2.15;;
84676;SDS011;74901;55.024;73.254;2023-12-29T04:06:20;5.97;;;1.63;;
84676;SDS011;74901;55.024;73.254;2023-12-29T04:11:17;7.20;;;2.30;;
84676;SDS011;74901;55.024;73.254;2023-12-29T04:13:46;7.28;;;2.83;;
84676;SDS011;74901;55.024;73.254;2023-12-29T04:16:16;3.70;;;1.20;;
84676;SDS011;74901;55.024;73.254;2023-12-29T04:18:45;5.20;;;1.60;;
84676;SDS011;74901;55.024;73.254;2023-12-29T04:21:14;4.22;;;1.55;;
84676;SDS011;74901;55.024;73.254;2023-12-29T04:26:12;4.70;;;1.90;;
84676;SDS011;74901;55.024;73.254;2023-12-29T04:28:44;4.07;;;1.65;;
84676;SDS011;74901;55.024;73.254;2023-12-29T04:31:13;7.43;;;1.85;;
84676;SDS011;74901;55.024;73.254;2023-12-29T04:33:44;4.20;;;1.40;;
84676;SDS011;74901;55.024;73.254;2023-12-29T04:36:13;3.85;;;1.42;;
84676;SDS011;74901;55.024;73.254;2023-12-29T04:38:42;3.75;;;1.48;;
84676;SDS011;74901;55.024;73.254;2023-12-29T04:41:11;5.85;;;1.25;;
84676;SDS011;74901;55.024;73.254;2023-12-29T04:43:42;6.05;;;1.95;;
84676;SDS011;74901;55.024;73.254;2023-12-29T04:46:11;5.88;;;1.30;;
84676;SDS011;74901;55.024;73.254;2023-12-29T04:48:39;4.45;;;1.30;;
84676;SDS011;74901;55.024;73.254;2023-12-29T04:51:10;5.35;;;1.35;;
84676;SDS011;74901;55.024;73.254;2023-12-29T04:53:39;3.83;;;1.23;;
84676;SDS011;74901;55.024;73.254;2023-12-29T04:56:07;4.85;;;1.60;;
84676;SDS011;74901;55.024;73.254;2023-12-29T04:58:37;2.67;;;1.00;;
84676;SDS011;74901;55.024;73.254;2023-12-29T05:01:06;5.07;;;1.63;;
84676;SDS011;74901;55.024;73.254;2023-12-29T05:03:35;6.28;;;1.33;;
84676;SDS011;74901;55.024;73.254;2023-12-29T05:06:04;4.82;;;1.45;;
84676;SDS011;74901;55.024;73.254;2023-12-29T05:21:49;5.10;;;1.70;;
84676;SDS011;74901;55.024;73.254;2023-12-29T05:24:21;6.93;;;2.00;;
84676;SDS011;74901;55.024;73.254;2023-12-29T05:26:51;4.53;;;1.33;;
84676;SDS011;74901;55.024;73.254;2023-12-29T05:29:20;3.78;;;1.10;;
84676;SDS011;74901;55.024;73.254;2023-12-29T05:31:51;3.63;;;1.05;;
84676;SDS011;74901;55.024;73.254;2023-12-29T05:34:25;4.30;;;1.80;;
84676;SDS011;74901;55.024;73.254;2023-12-29T05:36:56;3.78;;;1.48;;
84676;SDS011;74901;55.024;73.254;2023-12-29T05:39:25;2.40;;;0.85;;
84676;SDS011;74901;55.024;73.254;2023-12-29T05:41:55;2.00;;;0.85;;
84676;SDS011;74901;55.024;73.254;2023-12-29T05:44:26;2.10;;;0.80;;
84676;SDS011;74901;55.024;73.254;2023-12-29T05:46:59;2.75;;;1.17;;
84676;SDS011;74901;55.024;73.254;2023-12-29T05:49:32;1.30;;;0.60;;
84676;SDS011;74901;55.024;73.254;2023-12-29T05:52:08;3.40;;;1.10;;
84676;SDS011;74901;55.024;73.254;2023-12-29T05:54:37;1.50;;;0.45;;
84676;SDS011;74901;55.024;73.254;2023-12-29T05:57:06;2.88;;;0.65;;
84676;SDS011;74901;55.024;73.254;2023-12-29T05:59:44;1.63;;;0.80;;
84676;SDS011;74901;55.024;73.254;2023-12-29T06:02:18;3.50;;;1.35;;
84676;SDS011;74901;55.024;73.254;2023-12-29T06:04:53;3.53;;;1.20;;
84676;SDS011;74901;55.024;73.254;2023-12-29T06:07:39;5.90;;;1.30;;
84676;SDS011;74901;55.024;73.254;2023-12-29T06:10:08;3.50;;;1.25;;
84676;SDS011;74901;55.024;73.254;2023-12-29T06:12:52;3.53;;;1.27;;
84676;SDS011;74901;55.024;73.254;2023-12-29T06:15:30;4.63;;;1.35;;
84676;SDS011;74901;55.024;73.254;2023-12-29T06:18:26;2.85;;;1.10;;
84676;SDS011;74901;55.024;73.254;2023-12-29T06:21:01;4.20;;;1.63;;
84676;SDS011;74901;55.024;73.254;2023-12-29T06:26:19;2.30;;;0.82;;
84676;SDS011;74901;55.024;73.254;2023-12-29T06:28:59;5.13;;;1.73;;
84676;SDS011;74901;55.024;73.254;2023-12-29T06:31:41;3.30;;;1.55;;
84676;SDS011;74901;55.024;73.254;2023-12-29T06:34:12;3.67;;;1.30;;
84676;SDS011;74901;55.024;73.254;2023-12-29T06:36:45;3.60;;;1.10;;
84676;SDS011;74901;55.024;73.254;2023-12-29T06:39:20;2.80;;;1.05;;
84676;SDS011;74901;55.024;73.254;2023-12-29T06:41:49;2.33;;;0.88;;
84676;SDS011;74901;55.024;73.254;2023-12-29T06:44:19;2.78;;;1.30;;
84676;SDS011;74901;55.024;73.254;2023-12-29T06:46:52;2.60;;;0.90;;
84676;SDS011;74901;55.024;73.254;2023-12-29T06:49:21;2.75;;;0.90;;
84676;SDS011;74901;55.024;73.254;2023-12-29T06:51:51;2.35;;;0.50;;
84676;SDS011;74901;55.024;73.254;2023-12-29T06:54:23;1.80;;;0.70;;
84676;SDS011;74901;55.024;73.254;2023-12-29T06:56:52;1.58;;;0.63;;
84676;SDS011;74901;55.024;73.254;2023-12-29T06:59:22;3.25;;;1.23;;
84676;SDS011;74901;55.024;73.254;2023-12-29T07:01:51;1.65;;;0.65;;
84676;SDS011;74901;55.024;73.254;2023-12-29T07:07:44;2.53;;;0.90;;
84676;SDS011;74901;55.024;73.254;2023-12-29T07:10:17;6.72;;;0.93;;
84676;SDS011;74901;55.024;73.254;2023-12-29T07:12:46;1.70;;;0.75;;
84676;SDS011;74901;55.024;73.254;2023-12-29T07:15:17;1.95;;;0.70;;
84676;SDS011;74901;55.024;73.254;2023-12-29T07:17:49;1.55;;;0.70;;
84676;SDS011;74901;55.024;73.254;2023-12-29T07:20:19;2.15;;;0.85;;
84676;SDS011;74901;55.024;73.254;2023-12-29T07:22:48;1.40;;;0.60;;
84676;SDS011;74901;55.024;73.254;2023-12-29T07:25:20;1.38;;;0.60;;
84676;SDS011;74901;55.024;73.254;2023-12-29T07:27:49;1.48;;;0.50;;
84676;SDS011;74901;55.024;73.254;2023-12-29T07:30:19;2.17;;;0.80;;
84676;SDS011;74901;55.024;73.254;2023-12-29T07:35:17;2.38;;;0.77;;
84676;SDS011;74901;55.024;73.254;2023-12-29T07:37:47;1.10;;;0.40;;
84676;SDS011;74901;55.024;73.254;2023-12-29T07:40:17;1.55;;;0.77;;
84676;SDS011;74901;55.024;73.254;2023-12-29T07:42:50;3.10;;;1.15;;
84676;SDS011;74901;55.024;73.254;2023-12-29T07:45:22;3.17;;;1.00;;
84676;SDS011;74901;55.024;73.254;2023-12-29T07:50:58;3.63;;;1.30;;
84676;SDS011;74901;55.024;73.254;2023-12-29T07:53:33;3.97;;;1.50;;
84676;SDS011;74901;55.024;73.254;2023-12-29T07:56:06;3.00;;;1.10;;
84676;SDS011;74901;55.024;73.254;2023-12-29T07:58:45;3.63;;;1.40;;
84676;SDS011;74901;55.024;73.254;2023-12-29T08:01:16;4.18;;;1.60;;
84676;SDS011;74901;55.024;73.254;2023-12-29T08:06:14;2.70;;;1.13;;
84676;SDS011;74901;55.024;73.254;2023-12-29T08:08:43;3.60;;;1.30;;
84676;SDS011;74901;55.024;73.254;2023-12-29T08:11:16;4.40;;;1.50;;
84676;SDS011;74901;55.024;73.254;2023-12-29T08:13:46;3.97;;;1.40;;
84676;SDS011;74901;55.024;73.254;2023-12-29T08:16:16;3.72;;;1.40;;
84676;SDS011;74901;55.024;73.254;2023-12-29T08:18:46;4.53;;;1.85;;
84676;SDS011;74901;55.024;73.254;2023-12-29T08:21:18;3.67;;;1.50;;
84676;SDS011;74901;55.024;73.254;2023-12-29T08:23:48;5.20;;;1.63;;
84676;SDS011;74901;55.024;73.254;2023-12-29T08:26:18;2.75;;;1.00;;
84676;SDS011;74901;55.024;73.254;2023-12-29T08:28:47;3.28;;;1.20;;
84676;SDS011;74901;55.024;73.254;2023-12-29T08:31:17;3.97;;;1.40;;
84676;SDS011;74901;55.024;73.254;2023-12-29T08:33:48;3.83;;;1.35;;
84676;SDS011;74901;55.024;73.254;2023-12-29T08:36:23;2.60;;;1.05;;
84676;SDS011;74901;55.024;73.254;2023-12-29T08:38:55;4.22;;;1.30;;
84676;SDS011;74901;55.024;73.254;2023-12-29T08:41:31;3.33;;;1.20;;
84676;SDS011;74901;55.024;73.254;2023-12-29T08:44:05;3.70;;;1.40;;
84676;SDS011;74901;55.024;73.254;2023-12-29T08:46:35;2.65;;;1.02;;
84676;SDS011;74901;55.024;73.254;2023-12-29T08:49:12;3.20;;;1.27;;
84676;SDS011;74901;55.024;73.254;2023-12-29T08:51:41;2.50;;;0.98;;
84676;SDS011;74901;55.024;73.254;2023-12-29T08:54:14;4.28;;;1.23;;
84676;SDS011;74901;55.024;73.254;2023-12-29T08:56:48;2.97;;;1.10;;
84676;SDS011;74901;55.024;73.254;2023-12-29T08:59:17;3.35;;;1.23;;
84676;SDS011;74901;55.024;73.254;2023-12-29T09:01:45;5.30;;;2.20;;
84676;SDS011;74901;55.024;73.254;2023-12-29T09:04:14;2.88;;;1.02;;
84676;SDS011;74901;55.024;73.254;2023-12-29T09:06:43;3.85;;;1.40;;
84676;SDS011;74901;55.024;73.254;2023-12-29T09:09:12;3.00;;;1.30;;
84676;SDS011;74901;55.024;73.254;2023-12-29T09:11:41;3.28;;;1.15;;
84676;SDS011;74901;55.024;73.254;2023-12-29T09:14:12;3.88;;;1.60;;
84676;SDS011;74901;55.024;73.254;2023-12-29T09:16:44;3.95;;;1.48;;
84676;SDS011;74901;55.024;73.254;2023-12-29T09:19:13;3.90;;;1.40;;
84676;SDS011;74901;55.024;73.254;2023-12-29T09:21:46;3.88;;;1.38;;
84676;SDS011;74901;55.024;73.254;2023-12-29T09:24:23;2.95;;;1.17;;
84676;SDS011;74901;55.024;73.254;2023-12-29T09:26:52;3.78;;;1.48;;
84676;SDS011;74901;55.024;73.254;2023-12-29T09:29:24;3.75;;;1.50;;
84676;SDS011;74901;55.024;73.254;2023-12-29T09:31:53;3.63;;;1.40;;
84676;SDS011;74901;55.024;73.254;2023-12-29T09:34:22;2.85;;;1.17;;
84676;SDS011;74901;55.024;73.254;2023-12-29T09:36:51;2.58;;;1.00;;
84676;SDS011;74901;55.024;73.254;2023-12-29T09:39:20;2.58;;;1.02;;
84676;SDS011;74901;55.024;73.254;2023-12-29T09:41:51;2.60;;;0.90;;
84676;SDS011;74901;55.024;73.254;2023-12-29T09:44:24;3.08;;;1.20;;
84676;SDS011;74901;55.024;73.254;2023-12-29T09:46:54;2.92;;;1.05;;
84676;SDS011;74901;55.024;73.254;2023-12-29T09:49:25;3.30;;;1.63;;
84676;SDS011;74901;55.024;73.254;2023-12-29T09:51:58;2.80;;;0.98;;
84676;SDS011;74901;55.024;73.254;2023-12-29T09:54:30;2.65;;;1.00;;
84676;SDS011;74901;55.024;73.254;2023-12-29T09:56:59;3.28;;;1.20;;
84676;SDS011;74901;55.024;73.254;2023-12-29T10:02:00;2.63;;;1.20;;
84676;SDS011;74901;55.024;73.254;2023-12-29T10:04:31;3.25;;;1.08;;
84676;SDS011;74901;55.024;73.254;2023-12-29T10:07:02;3.92;;;1.42;;
84676;SDS011;74901;55.024;73.254;2023-12-29T10:09:34;1.73;;;0.90;;
84676;SDS011;74901;55.024;73.254;2023-12-29T10:12:08;2.15;;;0.90;;
84676;SDS011;74901;55.024;73.254;2023-12-29T10:14:41;3.45;;;0.93;;
84676;SDS011;74901;55.024;73.254;2023-12-29T10:17:19;4.65;;;1.60;;
84676;SDS011;74901;55.024;73.254;2023-12-29T10:19:58;2.25;;;0.93;;
84676;SDS011;74901;55.024;73.254;2023-12-29T10:22:38;2.60;;;0.93;;
84676;SDS011;74901;55.024;73.254;2023-12-29T10:25:16;3.22;;;1.15;;
84676;SDS011;74901;55.024;73.254;2023-12-29T10:27:46;2.38;;;1.00;;
84676;SDS011;74901;55.024;73.254;2023-12-29T10:30:16;2.00;;;0.90;;
84676;SDS011;74901;55.024;73.254;2023-12-29T10:32:49;2.17;;;0.93;;
84676;SDS011;74901;55.024;73.254;2023-12-29T10:35:25;2.95;;;1.15;;
84676;SDS011;74901;55.024;73.254;2023-12-29T10:37:54;2.63;;;1.08;;
84676;SDS011;74901;55.024;73.254;2023-12-29T10:40:38;2.88;;;1.02;;
84676;SDS011;74901;55.024;73.254;2023-12-29T10:43:09;2.35;;;1.00;;
84676;SDS011;74901;55.024;73.254;2023-12-29T10:48:07;2.72;;;1.15;;
84676;SDS011;74901;55.024;73.254;2023-12-29T10:50:42;2.65;;;1.15;;
84676;SDS011;74901;55.024;73.254;2023-12-29T10:53:12;3.42;;;1.15;;
84676;SDS011;74901;55.024;73.254;2023-12-29T10:55:43;4.45;;;1.50;;
84676;SDS011;74901;55.024;73.254;2023-12-29T10:58:11;2.25;;;1.15;;
84676;SDS011;74901;55.024;73.254;2023-12-29T11:00:45;3.10;;;1.20;;
84676;SDS011;74901;55.024;73.254;2023-12-29T11:03:14;5.28;;;1.88;;
84676;SDS011;74901;55.024;73.254;2023-12-29T11:05:44;4.25;;;1.70;;
84676;SDS011;74901;55.024;73.254;2023-12-29T11:08:16;5.35;;;1.80;;
84676;SDS011;74901;55.024;73.254;2023-12-29T11:10:47;4.55;;;1.60;;
84676;SDS011;74901;55.024;73.254;2023-12-29T11:13:20;4.93;;;2.08;;
84676;SDS011;74901;55.024;73.254;2023-12-29T11:15:51;4.35;;;1.77;;
84676;SDS011;74901;55.024;73.254;2023-12-29T11:18:23;5.50;;;2.03;;
84676;SDS011;74901;55.024;73.254;2023-12-29T11:20:54;4.10;;;1.67;;
84676;SDS011;74901;55.024;73.254;2023-12-29T11:23:27;5.18;;;1.92;;
84676;SDS011;74901;55.024;73.254;2023-12-29T11:25:56;4.00;;;1.58;;
84676;SDS011;74901;55.024;73.254;2023-12-29T11:28:26;4.90;;;1.80;;
84676;SDS011;74901;55.024;73.254;2023-12-29T11:30:58;5.60;;;2.38;;
84676;SDS011;74901;55.024;73.254;2023-12-29T11:33:27;4.85;;;2.03;;
84676;SDS011;74901;55.024;73.254;2023-12-29T11:36:04;5.50;;;2.20;;
84676;SDS011;74901;55.024;73.254;2023-12-29T11:38:44;5.22;;;2.10;;
84676;SDS011;74901;55.024;73.254;2023-12-29T11:41:24;5.50;;;1.55;;
84676;SDS011;74901;55.024;73.254;2023-12-29T11:43:59;4.25;;;1.55;;
84676;SDS011;74901;55.024;73.254;2023-12-29T11:46:38;4.03;;;1.73;;
84676;SDS011;74901;55.024;73.254;2023-12-29T11:49:17;4.05;;;1.77;;
84676;SDS011;74901;55.024;73.254;2023-12-29T11:51:46;4.18;;;1.45;;
84676;SDS011;74901;55.024;73.254;2023-12-29T11:54:21;5.25;;;1.95;;
84676;SDS011;74901;55.024;73.254;2023-12-29T11:56:55;3.78;;;1.50;;
84676;SDS011;74901;55.024;73.254;2023-12-29T11:59:25;2.90;;;1.25;;
84676;SDS011;74901;55.024;73.254;2023-12-29T12:01:58;4.32;;;1.83;;
84676;SDS011;74901;55.024;73.254;2023-12-29T12:04:38;5.18;;;1.88;;
84676;SDS011;74901;55.024;73.254;2023-12-29T12:07:11;4.85;;;2.03;;
84676;SDS011;74901;55.024;73.254;2023-12-29T12:09:44;3.50;;;1.40;;
84676;SDS011;74901;55.024;73.254;2023-12-29T12:12:15;4.68;;;1.73;;
84676;SDS011;74901;55.024;73.254;2023-12-29T12:15:11;3.88;;;1.52;;
84676;SDS011;74901;55.024;73.254;2023-12-29T12:18:01;4.50;;;1.52;;
84676;SDS011;74901;55.024;73.254;2023-12-29T12:20:32;4.55;;;1.92;;
84676;SDS011;74901;55.024;73.254;2023-12-29T12:23:02;5.57;;;1.67;;
84676;SDS011;74901;55.024;73.254;2023-12-29T12:25:35;4.85;;;1.85;;
84676;SDS011;74901;55.024;73.254;2023-12-29T12:28:09;4.57;;;1.75;;
84676;SDS011;74901;55.024;73.254;2023-12-29T12:30:38;5.95;;;1.88;;
84676;SDS011;74901;55.024;73.254;2023-12-29T12:33:08;4.32;;;1.38;;
84676;SDS011;74901;55.024;73.254;2023-12-29T12:35:39;4.30;;;1.60;;
84676;SDS011;74901;55.024;73.254;2023-12-29T12:38:08;5.47;;;2.20;;
84676;SDS011;74901;55.024;73.254;2023-12-29T12:43:05;3.03;;;1.30;;
84676;SDS011;74901;55.024;73.254;2023-12-29T12:45:35;5.00;;;1.65;;
84676;SDS011;74901;55.024;73.254;2023-12-29T12:48:12;5.82;;;2.13;;
84676;SDS011;74901;55.024;73.254;2023-12-29T12:50:43;4.15;;;1.45;;
84676;SDS011;74901;55.024;73.254;2023-12-29T12:53:13;7.10;;;2.20;;
84676;SDS011;74901;55.024;73.254;2023-12-29T12:55:49;6.03;;;2.22;;
84676;SDS011;74901;55.024;73.254;2023-12-29T12:58:20;6.80;;;2.63;;
84676;SDS011;74901;55.024;73.254;2023-12-29T13:00:49;5.95;;;2.17;;
84676;SDS011;74901;55.024;73.254;2023-12-29T13:03:20;6.78;;;2.35;;
84676;SDS011;74901;55.024;73.254;2023-12-29T13:05:49;5.30;;;2.72;;
84676;SDS011;74901;55.024;73.254;2023-12-29T13:08:23;5.40;;;2.25;;
84676;SDS011;74901;55.024;73.254;2023-12-29T13:10:54;6.18;;;2.33;;
84676;SDS011;74901;55.024;73.254;2023-12-29T13:13:22;6.88;;;2.65;;
84676;SDS011;74901;55.024;73.254;2023-12-29T13:15:51;5.68;;;2.72;;
84676;SDS011;74901;55.024;73.254;2023-12-29T13:18:30;4.80;;;2.15;;
84676;SDS011;74901;55.024;73.254;2023-12-29T13:21:00;6.22;;;2.45;;
84676;SDS011;74901;55.024;73.254;2023-12-29T13:23:30;7.57;;;2.42;;
84676;SDS011;74901;55.024;73.254;2023-12-29T13:25:59;6.63;;;2.33;;
84676;SDS011;74901;55.024;73.254;2023-12-29T13:28:31;8.85;;;3.22;;
84676;SDS011;74901;55.024;73.254;2023-12-29T13:31:00;8.63;;;2.95;;
84676;SDS011;74901;55.024;73.254;2023-12-29T13:33:32;7.22;;;2.60;;
84676;SDS011;74901;55.024;73.254;2023-12-29T13:36:11;8.70;;;3.08;;
84676;SDS011;74901;55.024;73.254;2023-12-29T13:38:49;7.65;;;3.60;;
84676;SDS011;74901;55.024;73.254;2023-12-29T13:41:22;7.65;;;2.90;;
84676;SDS011;74901;55.024;73.254;2023-12-29T13:43:54;13.32;;;2.88;;
84676;SDS011;74901;55.024;73.254;2023-12-29T13:46:23;6.60;;;2.40;;
84676;SDS011;74901;55.024;73.254;2023-12-29T13:48:54;6.13;;;2.20;;
84676;SDS011;74901;55.024;73.254;2023-12-29T13:51:24;7.60;;;3.33;;
84676;SDS011;74901;55.024;73.254;2023-12-29T13:53:59;10.55;;;4.07;;
84676;SDS011;74901;55.024;73.254;2023-12-29T13:56:33;7.60;;;3.17;;
84676;SDS011;74901;55.024;73.254;2023-12-29T13:59:02;8.07;;;3.45;;
84676;SDS011;74901;55.024;73.254;2023-12-29T14:01:36;7.53;;;3.28;;
84676;SDS011;74901;55.024;73.254;2023-12-29T14:04:11;8.05;;;2.78;;
84676;SDS011;74901;55.024;73.254;2023-12-29T14:06:54;8.02;;;3.45;;
84676;SDS011;74901;55.024;73.254;2023-12-29T14:09:30;8.45;;;3.13;;
84676;SDS011;74901;55.024;73.254;2023-12-29T14:11:58;15.15;;;3.40;;
84676;SDS011;74901;55.024;73.254;2023-12-29T14:14:27;10.32;;;3.85;;
84676;SDS011;74901;55.024;73.254;2023-12-29T14:16:57;8.38;;;3.28;;
84676;SDS011;74901;55.024;73.254;2023-12-29T14:19:28;8.32;;;3.05;;
84676;SDS011;74901;55.024;73.254;2023-12-29T14:22:05;15.38;;;5.75;;
84676;SDS011;74901;55.024;73.254;2023-12-29T14:24:33;8.63;;;3.45;;
84676;SDS011;74901;55.024;73.254;2023-12-29T14:27:04;7.30;;;3.25;;
84676;SDS011;74901;55.024;73.254;2023-12-29T14:29:40;8.57;;;3.20;;
84676;SDS011;74901;55.024;73.254;2023-12-29T14:32:09;9.00;;;2.47;;
84676;SDS011;74901;55.024;73.254;2023-12-29T14:34:40;14.35;;;3.00;;
84676;SDS011;74901;55.024;73.254;2023-12-29T14:37:09;4.55;;;1.90;;
84676;SDS011;74901;55.024;73.254;2023-12-29T14:39:38;7.95;;;3.60;;
84676;SDS011;74901;55.024;73.254;2023-12-29T14:42:09;11.63;;;2.78;;
84676;SDS011;74901;55.024;73.254;2023-12-29T14:44:37;6.60;;;3.10;;
84676;SDS011;74901;55.024;73.254;2023-12-29T14:47:06;4.80;;;2.13;;
84676;SDS011;74901;55.024;73.254;2023-12-29T14:49:35;20.63;;;3.88;;
84676;SDS011;74901;55.024;73.254;2023-12-29T14:52:06;4.75;;;1.85;;
84676;SDS011;74901;55.024;73.254;2023-12-29T14:54:34;10.10;;;2.40;;
84676;SDS011;74901;55.024;73.254;2023-12-29T14:57:05;6.70;;;2.30;;
84676;SDS011;74901;55.024;73.254;2023-12-29T14:59:34;6.70;;;2.28;;
84676;SDS011;74901;55.024;73.254;2023-12-29T15:02:04;11.00;;;2.55;;
84676;SDS011;74901;55.024;73.254;2023-12-29T15:04:34;6.00;;;2.10;;
84676;SDS011;74901;55.024;73.254;2023-12-29T15:07:03;8.05;;;1.92;;
84676;SDS011;74901;55.024;73.254;2023-12-29T15:09:34;7.05;;;2.35;;
84676;SDS011;74901;55.024;73.254;2023-12-29T15:12:04;4.97;;;2.13;;
84676;SDS011;74901;55.024;73.254;2023-12-29T15:14:33;6.00;;;2.45;;
84676;SDS011;74901;55.024;73.254;2023-12-29T15:17:04;9.43;;;3.30;;
84676;SDS011;74901;55.024;73.254;2023-12-29T15:19:35;6.68;;;2.38;;
84676;SDS011;74901;55.024;73.254;2023-12-29T15:22:15;7.10;;;2.80;;
84676;SDS011;74901;55.024;73.254;2023-12-29T15:24:46;8.02;;;2.75;;
84676;SDS011;74901;55.024;73.254;2023-12-29T15:27:15;8.65;;;2.83;;
84676;SDS011;74901;55.024;73.254;2023-12-29T15:29:44;9.30;;;2.85;;
84676;SDS011;74901;55.024;73.254;2023-12-29T15:32:13;7.93;;;2.90;;
84676;SDS011;74901;55.024;73.254;2023-12-29T15:34:41;7.20;;;3.10;;
84676;SDS011;74901;55.024;73.254;2023-12-29T15:37:12;7.32;;;2.50;;
84676;SDS011;74901;55.024;73.254;2023-12-29T15:39:41;11.57;;;4.68;;
84676;SDS011;74901;55.024;73.254;2023-12-29T15:42:10;7.05;;;2.95;;